sensor_id;sensor_type;location;lat;lon;timestamp;pressure;altitude;pressure_sealevel;temperature;humidity
80678;BME280;70042;52.494;5.502;2024-03-08T00:01:53;102158.66;;;16.17;67.52
80678;BME280;70042;52.494;5.502;2024-03-08T00:04:18;102156.91;;;16.13;67.55
80678;BME280;70042;52.494;5.502;2024-03-08T00:06:44;102151.63;;;16.16;67.71
80678;BME280;70042;52.494;5.502;2024-03-08T00:09:11;102149.00;;;16.13;67.74
80678;BME280;70042;52.494;5.502;2024-03-08T00:11:37;102142.81;;;16.14;67.71
80678;BME280;70042;52.494;5.502;2024-03-08T00:14:03;102141.94;;;16.12;67.30
80678;BME280;70042;52.494;5.502;2024-03-08T00:16:32;102137.56;;;16.13;67.49
80678;BME280;70042;52.494;5.502;2024-03-08T00:18:58;102142.81;;;16.11;67.53
80678;BME280;70042;52.494;5.502;2024-03-08T00:21:23;102138.44;;;16.12;67.35
80678;BME280;70042;52.494;5.502;2024-03-08T00:23:49;102135.81;;;16.10;67.48
80678;BME280;70042;52.494;5.502;2024-03-08T00:26:14;102139.31;;;16.09;67.71
80678;BME280;70042;52.494;5.502;2024-03-08T00:28:40;102135.81;;;16.07;67.48
80678;BME280;70042;52.494;5.502;2024-03-08T00:31:05;102134.91;;;16.05;67.46
80678;BME280;70042;52.494;5.502;2024-03-08T00:33:32;102140.19;;;16.07;67.32
80678;BME280;70042;52.494;5.502;2024-03-08T00:35:58;102143.72;;;16.07;67.42
80678;BME280;70042;52.494;5.502;2024-03-08T00:38:23;102138.44;;;16.07;67.36
80678;BME280;70042;52.494;5.502;2024-03-08T00:40:49;102134.91;;;16.10;67.49
80678;BME280;70042;52.494;5.502;2024-03-08T00:43:14;102137.56;;;16.10;67.30
80678;BME280;70042;52.494;5.502;2024-03-08T00:45:40;102129.63;;;16.08;67.51
80678;BME280;70042;52.494;5.502;2024-03-08T00:48:08;102128.75;;;16.06;67.66
80678;BME280;70042;52.494;5.502;2024-03-08T00:50:34;102129.63;;;16.07;67.37
80678;BME280;70042;52.494;5.502;2024-03-08T00:52:59;102131.38;;;16.08;67.07
80678;BME280;70042;52.494;5.502;2024-03-08T00:55:25;102128.75;;;16.09;67.47
80678;BME280;70042;52.494;5.502;2024-03-08T00:57:51;102122.59;;;16.06;67.11
80678;BME280;70042;52.494;5.502;2024-03-08T01:00:19;102120.81;;;16.05;67.26
80678;BME280;70042;52.494;5.502;2024-03-08T01:02:45;102119.06;;;16.02;67.47
80678;BME280;70042;52.494;5.502;2024-03-08T01:05:11;102117.31;;;16.01;67.56
80678;BME280;70042;52.494;5.502;2024-03-08T01:07:37;102113.81;;;16.04;67.45
80678;BME280;70042;52.494;5.502;2024-03-08T01:10:03;102109.44;;;16.07;67.13
80678;BME280;70042;52.494;5.502;2024-03-08T01:12:29;102103.25;;;16.02;66.93
80678;BME280;70042;52.494;5.502;2024-03-08T01:14:55;102104.13;;;15.99;67.49
80678;BME280;70042;52.494;5.502;2024-03-08T01:17:20;102095.34;;;15.97;67.37
80678;BME280;70042;52.494;5.502;2024-03-08T01:19:47;102096.22;;;15.98;67.07
80678;BME280;70042;52.494;5.502;2024-03-08T01:22:12;102088.31;;;15.98;66.99
80678;BME280;70042;52.494;5.502;2024-03-08T01:24:38;102085.66;;;15.98;67.34
80678;BME280;70042;52.494;5.502;2024-03-08T01:27:04;102081.28;;;15.95;66.86
80678;BME280;70042;52.494;5.502;2024-03-08T01:29:29;102076.03;;;15.97;67.13
80678;BME280;70042;52.494;5.502;2024-03-08T01:31:55;102067.22;;;15.95;67.32
80678;BME280;70042;52.494;5.502;2024-03-08T01:34:21;102069.00;;;15.94;67.34
80678;BME280;70042;52.494;5.502;2024-03-08T01:36:46;102062.84;;;15.97;67.32
80678;BME280;70042;52.494;5.502;2024-03-08T01:39:12;102062.81;;;15.95;67.14
80678;BME280;70042;52.494;5.502;2024-03-08T01:41:37;102061.97;;;15.93;67.40
80678;BME280;70042;52.494;5.502;2024-03-08T01:44:03;102058.44;;;15.93;66.95
80678;BME280;70042;52.494;5.502;2024-03-08T01:46:29;102045.25;;;15.93;67.05
80678;BME280;70042;52.494;5.502;2024-03-08T01:48:55;102044.38;;;15.88;67.29
80678;BME280;70042;52.494;5.502;2024-03-08T01:51:21;102049.66;;;15.88;67.24
80678;BME280;70042;52.494;5.502;2024-03-08T01:53:48;102046.13;;;15.89;67.46
80678;BME280;70042;52.494;5.502;2024-03-08T01:56:14;102037.34;;;15.90;66.78
80678;BME280;70042;52.494;5.502;2024-03-08T01:58:41;102032.06;;;15.88;67.14
80678;BME280;70042;52.494;5.502;2024-03-08T02:01:11;102028.56;;;15.91;67.01
80678;BME280;70042;52.494;5.502;2024-03-08T02:03:37;102027.69;;;15.90;67.29
80678;BME280;70042;52.494;5.502;2024-03-08T02:06:03;102021.53;;;15.90;67.27
80678;BME280;70042;52.494;5.502;2024-03-08T02:08:30;102021.53;;;15.90;66.85
80678;BME280;70042;52.494;5.502;2024-03-08T02:10:57;102023.31;;;15.88;67.17
80678;BME280;70042;52.494;5.502;2024-03-08T02:13:22;102021.53;;;15.87;66.91
80678;BME280;70042;52.494;5.502;2024-03-08T02:15:57;102021.53;;;15.87;67.12
80678;BME280;70042;52.494;5.502;2024-03-08T02:18:27;102021.53;;;15.84;67.43
80678;BME280;70042;52.494;5.502;2024-03-08T02:20:56;102013.59;;;15.82;67.25
80678;BME280;70042;52.494;5.502;2024-03-08T02:23:22;102016.25;;;15.84;67.10
80678;BME280;70042;52.494;5.502;2024-03-08T02:25:50;102010.97;;;15.82;67.08
80678;BME280;70042;52.494;5.502;2024-03-08T02:28:16;102011.84;;;15.83;66.83
80678;BME280;70042;52.494;5.502;2024-03-08T02:30:44;102005.72;;;15.81;67.19
80678;BME280;70042;52.494;5.502;2024-03-08T02:33:09;102000.44;;;15.81;66.99
80678;BME280;70042;52.494;5.502;2024-03-08T02:35:35;102003.97;;;15.81;66.77
80678;BME280;70042;52.494;5.502;2024-03-08T02:38:02;101997.81;;;15.81;67.09
80678;BME280;70042;52.494;5.502;2024-03-08T02:40:29;101996.94;;;15.82;67.46
80678;BME280;70042;52.494;5.502;2024-03-08T02:42:54;101996.03;;;15.83;67.02
80678;BME280;70042;52.494;5.502;2024-03-08T02:45:20;101990.78;;;15.81;66.84
80678;BME280;70042;52.494;5.502;2024-03-08T02:47:46;101988.13;;;15.83;66.82
80678;BME280;70042;52.494;5.502;2024-03-08T02:50:11;101986.41;;;15.82;67.22
80678;BME280;70042;52.494;5.502;2024-03-08T02:52:44;101983.75;;;15.83;66.82
80678;BME280;70042;52.494;5.502;2024-03-08T02:55:11;101979.38;;;15.81;66.58
80678;BME280;70042;52.494;5.502;2024-03-08T02:57:40;101982.00;;;15.78;66.55
80678;BME280;70042;52.494;5.502;2024-03-08T03:00:07;101971.47;;;15.78;66.92
80678;BME280;70042;52.494;5.502;2024-03-08T03:02:34;101974.06;;;15.76;67.18
80678;BME280;70042;52.494;5.502;2024-03-08T03:05:00;101972.31;;;15.77;66.65
80678;BME280;70042;52.494;5.502;2024-03-08T03:07:30;101967.06;;;15.77;67.28
80678;BME280;70042;52.494;5.502;2024-03-08T03:09:56;101964.41;;;15.77;66.76
80678;BME280;70042;52.494;5.502;2024-03-08T03:12:21;101962.66;;;15.74;66.87
80678;BME280;70042;52.494;5.502;2024-03-08T03:14:48;101962.66;;;15.76;67.14
80678;BME280;70042;52.494;5.502;2024-03-08T03:17:13;101955.66;;;15.75;66.78
80678;BME280;70042;52.494;5.502;2024-03-08T03:19:41;101956.53;;;15.75;66.96
80678;BME280;70042;52.494;5.502;2024-03-08T03:22:07;101953.88;;;15.77;66.55
80678;BME280;70042;52.494;5.502;2024-03-08T03:24:35;101946.00;;;15.75;66.86
80678;BME280;70042;52.494;5.502;2024-03-08T03:27:06;101943.34;;;15.75;67.03
80678;BME280;70042;52.494;5.502;2024-03-08T03:29:44;101940.72;;;15.74;66.65
80678;BME280;70042;52.494;5.502;2024-03-08T03:32:15;101938.94;;;15.76;66.81
80678;BME280;70042;52.494;5.502;2024-03-08T03:34:46;101941.59;;;15.74;66.58
80678;BME280;70042;52.494;5.502;2024-03-08T03:37:12;101935.44;;;15.71;66.72
80678;BME280;70042;52.494;5.502;2024-03-08T03:39:38;101933.66;;;15.70;66.98
80678;BME280;70042;52.494;5.502;2024-03-08T03:42:19;101931.06;;;15.71;66.98
80678;BME280;70042;52.494;5.502;2024-03-08T03:44:48;101923.16;;;15.74;66.89
80678;BME280;70042;52.494;5.502;2024-03-08T03:47:14;101930.16;;;15.71;66.35
80678;BME280;70042;52.494;5.502;2024-03-08T03:49:40;101921.38;;;15.67;66.73
80678;BME280;70042;52.494;5.502;2024-03-08T03:52:06;101925.75;;;15.70;66.73
80678;BME280;70042;52.494;5.502;2024-03-08T03:54:31;101922.28;;;15.69;66.55
80678;BME280;70042;52.494;5.502;2024-03-08T03:56:58;101916.13;;;15.70;66.94
80678;BME280;70042;52.494;5.502;2024-03-08T03:59:23;101924.03;;;15.72;67.04
80678;BME280;70042;52.494;5.502;2024-03-08T04:01:49;101922.28;;;15.72;66.36
80678;BME280;70042;52.494;5.502;2024-03-08T04:04:15;101912.59;;;15.68;66.65
80678;BME280;70042;52.494;5.502;2024-03-08T04:06:41;101909.97;;;15.65;67.16
80678;BME280;70042;52.494;5.502;2024-03-08T04:09:07;101923.13;;;15.67;67.00
80678;BME280;70042;52.494;5.502;2024-03-08T04:11:32;101910.84;;;15.67;67.05
80678;BME280;70042;52.494;5.502;2024-03-08T04:13:58;101909.09;;;15.65;67.25
80678;BME280;70042;52.494;5.502;2024-03-08T04:16:23;101908.22;;;15.63;67.13
80678;BME280;70042;52.494;5.502;2024-03-08T04:18:49;101908.22;;;15.64;66.51
80678;BME280;70042;52.494;5.502;2024-03-08T04:21:15;101903.81;;;15.62;66.64
80678;BME280;70042;52.494;5.502;2024-03-08T04:23:40;101905.56;;;15.64;66.63
80678;BME280;70042;52.494;5.502;2024-03-08T04:26:06;101900.31;;;15.63;67.13
80678;BME280;70042;52.494;5.502;2024-03-08T04:28:32;101898.56;;;15.62;66.45
80678;BME280;70042;52.494;5.502;2024-03-08T04:30:58;101907.31;;;15.64;66.94
80678;BME280;70042;52.494;5.502;2024-03-08T04:33:26;101901.19;;;15.62;66.82
80678;BME280;70042;52.494;5.502;2024-03-08T04:35:51;101903.81;;;15.62;66.38
80678;BME280;70042;52.494;5.502;2024-03-08T04:38:17;101902.06;;;15.61;66.94
80678;BME280;70042;52.494;5.502;2024-03-08T04:40:42;101897.66;;;15.61;66.75
80678;BME280;70042;52.494;5.502;2024-03-08T04:43:08;101894.19;;;15.59;67.01
80678;BME280;70042;52.494;5.502;2024-03-08T04:45:35;101899.41;;;15.61;66.46
80678;BME280;70042;52.494;5.502;2024-03-08T04:48:01;101888.03;;;15.59;66.58
80678;BME280;70042;52.494;5.502;2024-03-08T04:50:27;101892.41;;;15.57;66.26
80678;BME280;70042;52.494;5.502;2024-03-08T04:52:57;101891.53;;;15.58;66.65
80678;BME280;70042;52.494;5.502;2024-03-08T04:55:22;101888.03;;;15.56;67.05
80678;BME280;70042;52.494;5.502;2024-03-08T04:57:48;101891.53;;;15.58;66.36
80678;BME280;70042;52.494;5.502;2024-03-08T05:00:14;101875.72;;;15.55;66.71
80678;BME280;70042;52.494;5.502;2024-03-08T05:02:40;101891.53;;;15.58;66.40
80678;BME280;70042;52.494;5.502;2024-03-08T05:05:07;101881.88;;;15.58;67.00
80678;BME280;70042;52.494;5.502;2024-03-08T05:07:33;101872.22;;;15.59;66.87
80678;BME280;70042;52.494;5.502;2024-03-08T05:09:59;101868.72;;;15.60;66.73
80678;BME280;70042;52.494;5.502;2024-03-08T05:12:25;101879.25;;;15.60;66.85
80678;BME280;70042;52.494;5.502;2024-03-08T05:14:50;101878.34;;;15.61;66.19
80678;BME280;70042;52.494;5.502;2024-03-08T05:17:16;101875.72;;;15.58;66.30
80678;BME280;70042;52.494;5.502;2024-03-08T05:19:44;101867.84;;;15.56;66.54
80678;BME280;70042;52.494;5.502;2024-03-08T05:22:10;101870.44;;;15.58;66.50
80678;BME280;70042;52.494;5.502;2024-03-08T05:24:36;101878.38;;;15.56;66.45
80678;BME280;70042;52.494;5.502;2024-03-08T05:27:01;101884.53;;;15.57;66.58
80678;BME280;70042;52.494;5.502;2024-03-08T05:29:28;101882.75;;;15.56;66.23
80678;BME280;70042;52.494;5.502;2024-03-08T05:31:54;101882.75;;;15.56;66.66
80678;BME280;70042;52.494;5.502;2024-03-08T05:34:20;101880.09;;;15.54;67.25
80678;BME280;70042;52.494;5.502;2024-03-08T05:36:47;101876.59;;;15.55;66.22
80678;BME280;70042;52.494;5.502;2024-03-08T05:39:15;101886.25;;;15.55;66.80
80678;BME280;70042;52.494;5.502;2024-03-08T05:41:41;101883.63;;;15.53;67.02
80678;BME280;70042;52.494;5.502;2024-03-08T05:44:07;101875.72;;;15.52;66.29
80678;BME280;70042;52.494;5.502;2024-03-08T05:46:34;101873.97;;;15.51;66.76
80678;BME280;70042;52.494;5.502;2024-03-08T05:49:01;101879.25;;;15.51;66.95
80678;BME280;70042;52.494;5.502;2024-03-08T05:51:31;101874.84;;;15.54;66.70
80678;BME280;70042;52.494;5.502;2024-03-08T05:53:56;101874.84;;;15.50;66.53
80678;BME280;70042;52.494;5.502;2024-03-08T05:56:22;101882.75;;;15.53;67.12
80678;BME280;70042;52.494;5.502;2024-03-08T05:58:50;101875.72;;;15.48;66.82
80678;BME280;70042;52.494;5.502;2024-03-08T06:01:15;101874.81;;;15.46;66.88
80678;BME280;70042;52.494;5.502;2024-03-08T06:03:41;101874.84;;;15.48;67.12
80678;BME280;70042;52.494;5.502;2024-03-08T06:06:13;101870.41;;;15.45;67.07
80678;BME280;70042;52.494;5.502;2024-03-08T06:08:39;101869.56;;;15.46;66.70
80678;BME280;70042;52.494;5.502;2024-03-08T06:11:05;101861.69;;;15.50;66.78
80678;BME280;70042;52.494;5.502;2024-03-08T06:13:34;101858.19;;;15.51;66.59
80678;BME280;70042;52.494;5.502;2024-03-08T06:16:03;101856.38;;;15.46;67.20
80678;BME280;70042;52.494;5.502;2024-03-08T06:18:34;101860.81;;;15.51;66.41
80678;BME280;70042;52.494;5.502;2024-03-08T06:21:02;101850.25;;;15.47;66.43
80678;BME280;70042;52.494;5.502;2024-03-08T06:23:28;101853.75;;;15.46;66.96
80678;BME280;70042;52.494;5.502;2024-03-08T06:25:53;101849.34;;;15.45;67.16
80678;BME280;70042;52.494;5.502;2024-03-08T06:28:19;101849.34;;;15.45;66.65
80678;BME280;70042;52.494;5.502;2024-03-08T06:30:45;101852.84;;;15.44;66.45
80678;BME280;70042;52.494;5.502;2024-03-08T06:33:10;101847.59;;;15.44;66.60
80678;BME280;70042;52.494;5.502;2024-03-08T06:35:36;101846.72;;;15.44;66.92
80678;BME280;70042;52.494;5.502;2024-03-08T06:38:04;101837.94;;;15.42;66.25
80678;BME280;70042;52.494;5.502;2024-03-08T06:40:29;101843.22;;;15.43;66.51
80678;BME280;70042;52.494;5.502;2024-03-08T06:42:55;101842.31;;;15.41;67.08
80678;BME280;70042;52.494;5.502;2024-03-08T06:45:20;101833.53;;;15.42;66.55
80678;BME280;70042;52.494;5.502;2024-03-08T06:47:46;101834.41;;;15.44;66.77
80678;BME280;70042;52.494;5.502;2024-03-08T06:50:12;101833.53;;;15.42;66.39
80678;BME280;70042;52.494;5.502;2024-03-08T06:52:38;101843.22;;;15.43;66.63
80678;BME280;70042;52.494;5.502;2024-03-08T06:55:04;101834.44;;;15.40;66.56
80678;BME280;70042;52.494;5.502;2024-03-08T06:57:31;101833.53;;;15.42;66.76
80678;BME280;70042;52.494;5.502;2024-03-08T06:59:56;101835.31;;;15.43;66.14
80678;BME280;70042;52.494;5.502;2024-03-08T07:02:24;101843.22;;;15.48;67.48
80678;BME280;70042;52.494;5.502;2024-03-08T07:04:51;101840.59;;;15.56;67.18
80678;BME280;70042;52.494;5.502;2024-03-08T07:07:18;101835.34;;;15.59;67.98
80678;BME280;70042;52.494;5.502;2024-03-08T07:09:45;101837.09;;;15.66;67.26
80678;BME280;70042;52.494;5.502;2024-03-08T07:12:11;101838.84;;;15.71;67.54
80678;BME280;70042;52.494;5.502;2024-03-08T07:14:38;101837.06;;;15.81;67.02
80678;BME280;70042;52.494;5.502;2024-03-08T07:17:07;101835.28;;;15.86;66.95
80678;BME280;70042;52.494;5.502;2024-03-08T07:19:34;101836.16;;;15.89;66.49
80678;BME280;70042;52.494;5.502;2024-03-08T07:22:00;101832.66;;;15.93;66.61
80678;BME280;70042;52.494;5.502;2024-03-08T07:24:25;101833.53;;;15.97;66.52
80678;BME280;70042;52.494;5.502;2024-03-08T07:27:10;101831.75;;;15.99;66.68
80678;BME280;70042;52.494;5.502;2024-03-08T07:29:35;101828.25;;;16.00;66.43
80678;BME280;70042;52.494;5.502;2024-03-08T07:32:01;101835.25;;;16.01;66.37
80678;BME280;70042;52.494;5.502;2024-03-08T07:34:59;101830.00;;;15.99;65.88
80678;BME280;70042;52.494;5.502;2024-03-08T07:37:24;101817.72;;;15.97;66.37
80678;BME280;70042;52.494;5.502;2024-03-08T07:39:49;101816.81;;;15.99;66.40
80678;BME280;70042;52.494;5.502;2024-03-08T07:42:15;101813.31;;;15.99;66.17
80678;BME280;70042;52.494;5.502;2024-03-08T07:44:42;101815.06;;;16.00;66.39
80678;BME280;70042;52.494;5.502;2024-03-08T07:47:08;101815.97;;;16.00;66.09
80678;BME280;70042;52.494;5.502;2024-03-08T07:49:35;101805.38;;;16.05;66.22
80678;BME280;70042;52.494;5.502;2024-03-08T07:52:03;101807.13;;;16.06;65.93
80678;BME280;70042;52.494;5.502;2024-03-08T07:54:30;101799.22;;;16.08;66.08
80678;BME280;70042;52.494;5.502;2024-03-08T07:56:55;101808.00;;;16.08;66.05
80678;BME280;70042;52.494;5.502;2024-03-08T07:59:21;101793.94;;;16.09;66.00
80678;BME280;70042;52.494;5.502;2024-03-08T08:01:46;101801.00;;;16.10;65.74
80678;BME280;70042;52.494;5.502;2024-03-08T08:04:12;101789.53;;;16.11;66.06
80678;BME280;70042;52.494;5.502;2024-03-08T08:06:40;101791.31;;;16.09;66.37
80678;BME280;70042;52.494;5.502;2024-03-08T08:09:08;101793.09;;;16.10;66.41
80678;BME280;70042;52.494;5.502;2024-03-08T08:11:41;101789.53;;;16.14;65.83
80678;BME280;70042;52.494;5.502;2024-03-08T08:14:23;101780.72;;;16.14;65.84
80678;BME280;70042;52.494;5.502;2024-03-08T08:16:49;101781.63;;;16.14;65.88
80678;BME280;70042;52.494;5.502;2024-03-08T08:19:18;101781.63;;;16.13;66.42
80678;BME280;70042;52.494;5.502;2024-03-08T08:21:43;101770.22;;;16.12;66.24
80678;BME280;70042;52.494;5.502;2024-03-08T08:24:09;101768.44;;;16.11;66.18
80678;BME280;70042;52.494;5.502;2024-03-08T08:26:36;101773.72;;;16.11;66.58
80678;BME280;70042;52.494;5.502;2024-03-08T08:29:01;101767.56;;;16.15;66.51
80678;BME280;70042;52.494;5.502;2024-03-08T08:31:27;101751.75;;;16.17;66.44
80678;BME280;70042;52.494;5.502;2024-03-08T08:33:52;101757.03;;;16.17;66.15
80678;BME280;70042;52.494;5.502;2024-03-08T08:36:26;101754.34;;;16.21;66.07
80678;BME280;70042;52.494;5.502;2024-03-08T08:38:55;101756.13;;;16.22;66.28
80678;BME280;70042;52.494;5.502;2024-03-08T08:41:21;101757.88;;;16.22;66.09
80678;BME280;70042;52.494;5.502;2024-03-08T08:43:47;101750.84;;;16.22;65.99
80678;BME280;70042;52.494;5.502;2024-03-08T08:46:17;101745.56;;;16.25;65.95
80678;BME280;70042;52.494;5.502;2024-03-08T08:48:42;101749.91;;;16.26;65.95
80678;BME280;70042;52.494;5.502;2024-03-08T08:51:10;101748.19;;;16.25;66.03
80678;BME280;70042;52.494;5.502;2024-03-08T08:53:39;101736.72;;;16.26;66.17
80678;BME280;70042;52.494;5.502;2024-03-08T08:56:12;101740.25;;;16.31;65.99
80678;BME280;70042;52.494;5.502;2024-03-08T08:58:44;101734.94;;;16.33;65.92
80678;BME280;70042;52.494;5.502;2024-03-08T09:01:10;101736.69;;;16.38;65.90
80678;BME280;70042;52.494;5.502;2024-03-08T09:03:38;101728.81;;;16.35;65.74
80678;BME280;70042;52.494;5.502;2024-03-08T09:06:06;101727.00;;;16.42;65.88
80678;BME280;70042;52.494;5.502;2024-03-08T09:08:38;101726.97;;;16.46;65.33
80678;BME280;70042;52.494;5.502;2024-03-08T09:11:04;101725.22;;;16.42;65.70
80678;BME280;70042;52.494;5.502;2024-03-08T09:13:30;101717.34;;;16.38;65.53
80678;BME280;70042;52.494;5.502;2024-03-08T09:15:56;101715.63;;;16.32;65.98
80678;BME280;70042;52.494;5.502;2024-03-08T09:18:21;101718.28;;;16.26;66.16
80678;BME280;70042;52.494;5.502;2024-03-08T09:20:47;101707.75;;;16.23;66.10
80678;BME280;70042;52.494;5.502;2024-03-08T09:23:12;101703.41;;;16.19;66.56
80678;BME280;70042;52.494;5.502;2024-03-08T09:25:38;101700.75;;;16.18;65.94
80678;BME280;70042;52.494;5.502;2024-03-08T09:28:04;101699.88;;;16.17;66.14
80678;BME280;70042;52.494;5.502;2024-03-08T09:30:31;101697.25;;;16.16;66.13
80678;BME280;70042;52.494;5.502;2024-03-08T09:32:56;101689.34;;;16.14;66.32
80678;BME280;70042;52.494;5.502;2024-03-08T09:35:22;101691.09;;;16.14;66.09
80678;BME280;70042;52.494;5.502;2024-03-08T09:37:47;101698.16;;;16.13;66.42
80678;BME280;70042;52.494;5.502;2024-03-08T09:40:16;101696.41;;;16.12;66.43
80678;BME280;70042;52.494;5.502;2024-03-08T09:42:45;101677.94;;;16.12;66.31
80678;BME280;70042;52.494;5.502;2024-03-08T09:45:11;101664.75;;;16.12;66.72
80678;BME280;70042;52.494;5.502;2024-03-08T09:47:40;101671.84;;;16.07;66.40
80678;BME280;70042;52.494;5.502;2024-03-08T09:50:07;101663.00;;;16.08;66.80
80678;BME280;70042;52.494;5.502;2024-03-08T09:52:36;101663.91;;;16.10;66.66
80678;BME280;70042;52.494;5.502;2024-03-08T09:55:05;101656.00;;;16.10;66.84
80678;BME280;70042;52.494;5.502;2024-03-08T09:57:32;101646.31;;;16.08;66.57
80678;BME280;70042;52.494;5.502;2024-03-08T09:59:58;101640.19;;;16.10;66.38
80678;BME280;70042;52.494;5.502;2024-03-08T10:02:24;101643.72;;;16.06;66.11
80678;BME280;70042;52.494;5.502;2024-03-08T10:04:51;101639.28;;;16.11;66.21
80678;BME280;70042;52.494;5.502;2024-03-08T10:07:18;101626.97;;;16.12;66.48
80678;BME280;70042;52.494;5.502;2024-03-08T10:09:44;101625.22;;;16.12;66.04
80678;BME280;70042;52.494;5.502;2024-03-08T10:12:18;101625.19;;;16.14;65.82
80678;BME280;70042;52.494;5.502;2024-03-08T10:14:45;101634.00;;;16.11;66.28
80678;BME280;70042;52.494;5.502;2024-03-08T10:17:12;101619.06;;;16.13;66.31
80678;BME280;70042;52.494;5.502;2024-03-08T10:19:37;101625.19;;;16.18;65.90
80678;BME280;70042;52.494;5.502;2024-03-08T10:22:04;101620.75;;;16.20;66.07
80678;BME280;70042;52.494;5.502;2024-03-08T10:24:30;101621.63;;;16.21;66.26
80678;BME280;70042;52.494;5.502;2024-03-08T10:27:00;101623.41;;;16.22;65.99
80678;BME280;70042;52.494;5.502;2024-03-08T10:29:27;101610.22;;;16.20;65.99
80678;BME280;70042;52.494;5.502;2024-03-08T10:31:54;101612.84;;;16.20;66.29
80678;BME280;70042;52.494;5.502;2024-03-08T10:34:22;101604.91;;;16.23;66.24
80678;BME280;70042;52.494;5.502;2024-03-08T10:36:50;101611.91;;;16.30;66.50
80678;BME280;70042;52.494;5.502;2024-03-08T10:39:23;101600.44;;;16.36;65.99
80678;BME280;70042;52.494;5.502;2024-03-08T10:41:56;101606.53;;;16.42;66.17
80678;BME280;70042;52.494;5.502;2024-03-08T10:47:00;101593.25;;;16.51;65.73
80678;BME280;70042;52.494;5.502;2024-03-08T10:49:35;101589.75;;;16.54;65.73
80678;BME280;70042;52.494;5.502;2024-03-08T10:52:04;101588.84;;;16.60;65.47
80678;BME280;70042;52.494;5.502;2024-03-08T10:54:40;101580.88;;;16.66;65.44
80678;BME280;70042;52.494;5.502;2024-03-08T10:57:08;101581.72;;;16.68;65.44
80678;BME280;70042;52.494;5.502;2024-03-08T10:59:35;101573.72;;;16.77;65.61
80678;BME280;70042;52.494;5.502;2024-03-08T11:02:01;101561.38;;;16.82;65.32
80678;BME280;70042;52.494;5.502;2024-03-08T11:04:27;101571.03;;;16.84;65.19
80678;BME280;70042;52.494;5.502;2024-03-08T11:07:00;101559.56;;;16.87;64.89
80678;BME280;70042;52.494;5.502;2024-03-08T11:09:32;101556.91;;;16.87;64.98
80678;BME280;70042;52.494;5.502;2024-03-08T11:14:56;101548.13;;;16.86;65.63
80678;BME280;70042;52.494;5.502;2024-03-08T11:19:55;101533.13;;;16.91;64.95
80678;BME280;70042;52.494;5.502;2024-03-08T11:22:42;101523.41;;;16.95;64.72
80678;BME280;70042;52.494;5.502;2024-03-08T11:25:31;101526.91;;;16.98;64.69
80678;BME280;70042;52.494;5.502;2024-03-08T11:28:17;101515.41;;;16.99;64.60
80678;BME280;70042;52.494;5.502;2024-03-08T11:30:44;101499.63;;;16.98;64.74
80678;BME280;70042;52.494;5.502;2024-03-08T11:33:14;101499.56;;;16.99;64.57
80678;BME280;70042;52.494;5.502;2024-03-08T11:35:41;101496.94;;;17.01;64.53
80678;BME280;70042;52.494;5.502;2024-03-08T11:38:08;101490.66;;;17.10;64.39
80678;BME280;70042;52.494;5.502;2024-03-08T11:40:35;101493.31;;;17.10;64.39
80678;BME280;70042;52.494;5.502;2024-03-08T11:43:01;101482.78;;;17.08;64.11
80678;BME280;70042;52.494;5.502;2024-03-08T11:45:33;101468.69;;;17.06;64.14
80678;BME280;70042;52.494;5.502;2024-03-08T11:48:02;101477.50;;;17.05;64.12
80678;BME280;70042;52.494;5.502;2024-03-08T11:50:29;101473.09;;;17.05;64.51
80678;BME280;70042;52.494;5.502;2024-03-08T11:53:00;101466.00;;;17.11;64.60
80678;BME280;70042;52.494;5.502;2024-03-08T11:55:27;101457.13;;;17.15;64.73
80678;BME280;70042;52.494;5.502;2024-03-08T11:58:00;101450.94;;;17.20;64.50
80678;BME280;70042;52.494;5.502;2024-03-08T12:00:26;101457.91;;;17.24;64.54
80678;BME280;70042;52.494;5.502;2024-03-08T12:03:09;101449.91;;;17.29;64.14
80678;BME280;70042;52.494;5.502;2024-03-08T12:05:35;101449.00;;;17.31;64.50
80678;BME280;70042;52.494;5.502;2024-03-08T12:08:02;101446.31;;;17.36;63.99
80678;BME280;70042;52.494;5.502;2024-03-08T12:10:28;101439.19;;;17.41;64.14
80678;BME280;70042;52.494;5.502;2024-03-08T12:12:55;101435.66;;;17.42;64.11
80678;BME280;70042;52.494;5.502;2024-03-08T12:15:23;101430.31;;;17.45;63.85
80678;BME280;70042;52.494;5.502;2024-03-08T12:17:53;101425.88;;;17.48;63.71
80678;BME280;70042;52.494;5.502;2024-03-08T12:20:22;101420.50;;;17.53;63.82
80678;BME280;70042;52.494;5.502;2024-03-08T12:22:49;101418.72;;;17.53;63.45
80678;BME280;70042;52.494;5.502;2024-03-08T12:25:17;101415.22;;;17.54;63.64
80678;BME280;70042;52.494;5.502;2024-03-08T12:27:43;101404.63;;;17.54;63.89
80678;BME280;70042;52.494;5.502;2024-03-08T12:30:25;101393.16;;;17.58;63.40
80678;BME280;70042;52.494;5.502;2024-03-08T12:32:59;101387.84;;;17.60;63.37
80678;BME280;70042;52.494;5.502;2024-03-08T12:35:27;101383.44;;;17.61;63.50
80678;BME280;70042;52.494;5.502;2024-03-08T12:37:54;101381.63;;;17.63;63.60
80678;BME280;70042;52.494;5.502;2024-03-08T12:40:26;101376.19;;;17.72;63.01
80678;BME280;70042;52.494;5.502;2024-03-08T12:42:52;101374.41;;;17.74;63.31
80678;BME280;70042;52.494;5.502;2024-03-08T12:45:18;101370.91;;;17.73;63.26
80678;BME280;70042;52.494;5.502;2024-03-08T12:47:43;101357.63;;;17.76;63.30
80678;BME280;70042;52.494;5.502;2024-03-08T12:50:10;101362.81;;;17.81;63.22
80678;BME280;70042;52.494;5.502;2024-03-08T12:52:35;101358.44;;;17.80;62.88
80678;BME280;70042;52.494;5.502;2024-03-08T12:55:02;101353.13;;;17.81;62.92
80678;BME280;70042;52.494;5.502;2024-03-08T12:57:28;101343.41;;;17.82;62.94
80678;BME280;70042;52.494;5.502;2024-03-08T12:59:54;101344.22;;;17.87;63.02